sensor_id;sensor_type;location;lat;lon;timestamp;P1;durP1;ratioP1;P2;durP2;ratioP2
57301;SDS011;43149;50.974;18.224;2023-11-21T00:07:36;19.70;;;4.70;;
57301;SDS011;43149;50.974;18.224;2023-11-21T00:17:20;19.70;;;9.50;;
57301;SDS011;43149;50.974;18.224;2023-11-21T00:34:23;8.20;;;5.50;;
57301;SDS011;43149;50.974;18.224;2023-11-21T00:44:07;2.50;;;2.40;;
57301;SDS011;43149;50.974;18.224;2023-11-21T00:53:49;16.50;;;7.70;;
57301;SDS011;43149;50.974;18.224;2023-11-21T01:03:37;6.00;;;5.40;;
57301;SDS011;43149;50.974;18.224;2023-11-21T01:13:24;8.90;;;6.30;;
57301;SDS011;43149;50.974;18.224;2023-11-21T01:23:14;3.30;;;1.80;;
57301;SDS011;43149;50.974;18.224;2023-11-21T01:32:58;3.30;;;3.10;;
57301;SDS011;43149;50.974;18.224;2023-11-21T01:50:02;4.00;;;3.70;;
57301;SDS011;43149;50.974;18.224;2023-11-21T01:59:47;6.80;;;6.10;;
57301;SDS011;43149;50.974;18.224;2023-11-21T02:09:33;4.00;;;3.10;;
57301;SDS011;43149;50.974;18.224;2023-11-21T02:19:18;4.90;;;2.70;;
57301;SDS011;43149;50.974;18.224;2023-11-21T02:29:13;5.60;;;4.50;;
57301;SDS011;43149;50.974;18.224;2023-11-21T02:39:05;3.30;;;2.70;;
57301;SDS011;43149;50.974;18.224;2023-11-21T02:48:52;3.10;;;2.70;;
57301;SDS011;43149;50.974;18.224;2023-11-21T02:58:37;4.20;;;3.80;;
57301;SDS011;43149;50.974;18.224;2023-11-21T03:08:22;10.50;;;6.10;;
57301;SDS011;43149;50.974;18.224;2023-11-21T03:18:05;13.40;;;7.90;;
57301;SDS011;43149;50.974;18.224;2023-11-21T03:27:49;11.80;;;6.10;;
57301;SDS011;43149;50.974;18.224;2023-11-21T03:37:32;21.60;;;7.50;;
57301;SDS011;43149;50.974;18.224;2023-11-21T03:47:18;15.60;;;6.30;;
57301;SDS011;43149;50.974;18.224;2023-11-21T03:57:04;7.60;;;5.10;;
57301;SDS011;43149;50.974;18.224;2023-11-21T04:06:48;5.00;;;4.50;;
57301;SDS011;43149;50.974;18.224;2023-11-21T04:16:31;4.10;;;3.80;;
57301;SDS011;43149;50.974;18.224;2023-11-21T04:26:14;9.30;;;6.90;;
57301;SDS011;43149;50.974;18.224;2023-11-21T04:35:58;18.30;;;5.30;;
57301;SDS011;43149;50.974;18.224;2023-11-21T04:45:40;13.50;;;5.20;;
57301;SDS011;43149;50.974;18.224;2023-11-21T04:55:25;10.00;;;5.30;;
57301;SDS011;43149;50.974;18.224;2023-11-21T05:05:12;3.90;;;3.50;;
57301;SDS011;43149;50.974;18.224;2023-11-21T05:15:06;9.70;;;7.90;;
57301;SDS011;43149;50.974;18.224;2023-11-21T05:24:55;17.40;;;12.60;;
57301;SDS011;43149;50.974;18.224;2023-11-21T05:41:57;6.40;;;5.80;;
57301;SDS011;43149;50.974;18.224;2023-11-21T05:51:41;6.60;;;4.30;;
57301;SDS011;43149;50.974;18.224;2023-11-21T06:01:25;6.10;;;5.50;;
57301;SDS011;43149;50.974;18.224;2023-11-21T06:11:16;8.60;;;6.10;;
57301;SDS011;43149;50.974;18.224;2023-11-21T06:18:33;17.10;;;10.60;;
57301;SDS011;43149;50.974;18.224;2023-11-21T06:28:18;12.70;;;8.10;;
57301;SDS011;43149;50.974;18.224;2023-11-21T06:38:02;11.10;;;6.60;;
57301;SDS011;43149;50.974;18.224;2023-11-21T06:47:45;11.70;;;10.50;;
57301;SDS011;43149;50.974;18.224;2023-11-21T06:57:28;8.30;;;6.50;;
57301;SDS011;43149;50.974;18.224;2023-11-21T07:07:12;5.80;;;5.30;;
57301;SDS011;43149;50.974;18.224;2023-11-21T07:17:01;8.00;;;5.40;;
57301;SDS011;43149;50.974;18.224;2023-11-21T07:26:43;5.60;;;4.20;;
57301;SDS011;43149;50.974;18.224;2023-11-21T07:36:28;27.80;;;11.80;;
57301;SDS011;43149;50.974;18.224;2023-11-21T07:46:11;17.30;;;15.50;;
57301;SDS011;43149;50.974;18.224;2023-11-21T07:56:03;19.10;;;9.70;;
57301;SDS011;43149;50.974;18.224;2023-11-21T08:05:52;16.20;;;10.00;;
57301;SDS011;43149;50.974;18.224;2023-11-21T08:15:41;14.80;;;11.40;;
57301;SDS011;43149;50.974;18.224;2023-11-21T08:25:31;13.50;;;8.40;;
57301;SDS011;43149;50.974;18.224;2023-11-21T08:35:23;10.60;;;6.90;;
57301;SDS011;43149;50.974;18.224;2023-11-21T08:45:14;9.30;;;7.00;;
57301;SDS011;43149;50.974;18.224;2023-11-21T08:55:03;9.10;;;5.60;;
57301;SDS011;43149;50.974;18.224;2023-11-21T09:04:57;11.70;;;7.90;;
57301;SDS011;43149;50.974;18.224;2023-11-21T09:14:42;17.30;;;9.50;;
57301;SDS011;43149;50.974;18.224;2023-11-21T09:24:34;5.90;;;3.70;;
57301;SDS011;43149;50.974;18.224;2023-11-21T09:34:17;25.90;;;10.10;;
57301;SDS011;43149;50.974;18.224;2023-11-21T09:44:10;20.00;;;10.70;;
57301;SDS011;43149;50.974;18.224;2023-11-21T09:54:10;12.70;;;9.50;;
57301;SDS011;43149;50.974;18.224;2023-11-21T10:03:58;4.90;;;3.80;;
57301;SDS011;43149;50.974;18.224;2023-11-21T10:14:12;46.50;;;23.60;;
57301;SDS011;43149;50.974;18.224;2023-11-21T10:23:59;24.80;;;15.70;;
57301;SDS011;43149;50.974;18.224;2023-11-21T10:33:49;42.30;;;21.30;;
57301;SDS011;43149;50.974;18.224;2023-11-21T10:43:44;41.70;;;12.30;;
57301;SDS011;43149;50.974;18.224;2023-11-21T10:53:32;45.30;;;22.20;;
57301;SDS011;43149;50.974;18.224;2023-11-21T11:03:25;63.50;;;21.20;;
57301;SDS011;43149;50.974;18.224;2023-11-21T11:13:13;23.70;;;11.80;;
57301;SDS011;43149;50.974;18.224;2023-11-21T11:33:42;20.90;;;9.60;;
57301;SDS011;43149;50.974;18.224;2023-11-21T11:43:32;25.20;;;13.90;;
57301;SDS011;43149;50.974;18.224;2023-11-21T11:53:39;36.70;;;10.70;;
57301;SDS011;43149;50.974;18.224;2023-11-21T12:03:39;43.10;;;22.60;;
57301;SDS011;43149;50.974;18.224;2023-11-21T12:13:24;60.50;;;19.70;;
57301;SDS011;43149;50.974;18.224;2023-11-21T12:23:12;53.20;;;18.10;;
57301;SDS011;43149;50.974;18.224;2023-11-21T12:33:01;34.00;;;15.30;;
57301;SDS011;43149;50.974;18.224;2023-11-21T12:42:53;29.10;;;14.20;;
57301;SDS011;43149;50.974;18.224;2023-11-21T12:52:54;28.70;;;16.30;;
57301;SDS011;43149;50.974;18.224;2023-11-21T13:02:57;43.60;;;17.60;;
57301;SDS011;43149;50.974;18.224;2023-11-21T13:12:51;42.10;;;20.50;;
57301;SDS011;43149;50.974;18.224;2023-11-21T13:22:45;37.80;;;15.20;;
57301;SDS011;43149;50.974;18.224;2023-11-21T13:32:44;27.60;;;15.60;;
57301;SDS011;43149;50.974;18.224;2023-11-21T13:42:48;13.90;;;11.40;;
57301;SDS011;43149;50.974;18.224;2023-11-21T13:52:43;17.70;;;8.70;;
57301;SDS011;43149;50.974;18.224;2023-11-21T14:02:56;22.80;;;10.60;;
57301;SDS011;43149;50.974;18.224;2023-11-21T14:13:05;21.20;;;13.60;;
57301;SDS011;43149;50.974;18.224;2023-11-21T14:22:50;20.70;;;12.10;;
57301;SDS011;43149;50.974;18.224;2023-11-21T14:32:38;92.00;;;34.00;;
57301;SDS011;43149;50.974;18.224;2023-11-21T14:42:22;28.30;;;18.30;;
57301;SDS011;43149;50.974;18.224;2023-11-21T14:52:21;20.30;;;14.40;;
57301;SDS011;43149;50.974;18.224;2023-11-21T15:03:01;22.40;;;16.80;;
57301;SDS011;43149;50.974;18.224;2023-11-21T15:13:03;31.60;;;18.80;;
57301;SDS011;43149;50.974;18.224;2023-11-21T15:22:52;22.80;;;12.70;;
57301;SDS011;43149;50.974;18.224;2023-11-21T15:32:35;35.50;;;24.30;;
57301;SDS011;43149;50.974;18.224;2023-11-21T15:42:20;46.80;;;29.40;;
57301;SDS011;43149;50.974;18.224;2023-11-21T15:52:06;40.80;;;25.30;;
57301;SDS011;43149;50.974;18.224;2023-11-21T16:01:59;33.20;;;21.00;;
57301;SDS011;43149;50.974;18.224;2023-11-21T16:11:59;38.00;;;24.20;;
57301;SDS011;43149;50.974;18.224;2023-11-21T16:22:10;36.90;;;23.00;;
57301;SDS011;43149;50.974;18.224;2023-11-21T16:31:56;48.20;;;23.40;;
57301;SDS011;43149;50.974;18.224;2023-11-21T16:41:47;33.90;;;21.70;;
57301;SDS011;43149;50.974;18.224;2023-11-21T16:51:31;38.80;;;22.30;;
57301;SDS011;43149;50.974;18.224;2023-11-21T17:01:15;54.30;;;30.60;;
57301;SDS011;43149;50.974;18.224;2023-11-21T17:11:03;65.00;;;34.20;;
57301;SDS011;43149;50.974;18.224;2023-11-21T17:20:54;37.80;;;28.70;;
57301;SDS011;43149;50.974;18.224;2023-11-21T17:30:39;49.50;;;26.50;;
57301;SDS011;43149;50.974;18.224;2023-11-21T17:40:25;38.30;;;22.10;;
57301;SDS011;43149;50.974;18.224;2023-11-21T17:50:09;80.90;;;37.60;;
57301;SDS011;43149;50.974;18.224;2023-11-21T18:00:01;48.10;;;29.50;;
57301;SDS011;43149;50.974;18.224;2023-11-21T18:09:52;17.60;;;13.10;;
57301;SDS011;43149;50.974;18.224;2023-11-21T18:19:42;50.90;;;33.10;;
57301;SDS011;43149;50.974;18.224;2023-11-21T18:29:27;63.10;;;37.70;;
57301;SDS011;43149;50.974;18.224;2023-11-21T18:39:11;54.10;;;35.40;;
57301;SDS011;43149;50.974;18.224;2023-11-21T18:49:02;45.40;;;29.00;;
57301;SDS011;43149;50.974;18.224;2023-11-21T18:58:50;106.00;;;59.70;;
57301;SDS011;43149;50.974;18.224;2023-11-21T19:08:47;183.90;;;88.80;;
57301;SDS011;43149;50.974;18.224;2023-11-21T19:18:31;72.30;;;44.10;;
57301;SDS011;43149;50.974;18.224;2023-11-21T19:28:16;74.70;;;37.60;;
57301;SDS011;43149;50.974;18.224;2023-11-21T19:38:05;80.80;;;40.00;;
57301;SDS011;43149;50.974;18.224;2023-11-21T19:47:57;98.60;;;43.10;;
57301;SDS011;43149;50.974;18.224;2023-11-21T19:57:42;97.00;;;52.40;;
57301;SDS011;43149;50.974;18.224;2023-11-21T20:07:29;76.20;;;44.00;;
57301;SDS011;43149;50.974;18.224;2023-11-21T20:17:15;86.20;;;47.60;;
57301;SDS011;43149;50.974;18.224;2023-11-21T20:27:03;52.70;;;34.00;;
57301;SDS011;43149;50.974;18.224;2023-11-21T20:36:49;84.80;;;33.00;;
57301;SDS011;43149;50.974;18.224;2023-11-21T20:46:40;66.90;;;38.00;;
57301;SDS011;43149;50.974;18.224;2023-11-21T20:56:30;52.50;;;32.70;;
57301;SDS011;43149;50.974;18.224;2023-11-21T21:06:24;63.00;;;39.50;;
57301;SDS011;43149;50.974;18.224;2023-11-21T21:16:12;52.60;;;35.30;;
57301;SDS011;43149;50.974;18.224;2023-11-21T21:25:56;69.70;;;37.80;;
57301;SDS011;43149;50.974;18.224;2023-11-21T21:35:40;56.90;;;34.20;;
57301;SDS011;43149;50.974;18.224;2023-11-21T21:45:24;42.30;;;29.80;;
57301;SDS011;43149;50.974;18.224;2023-11-21T21:55:08;42.10;;;27.70;;
57301;SDS011;43149;50.974;18.224;2023-11-21T22:05:00;66.50;;;43.20;;
57301;SDS011;43149;50.974;18.224;2023-11-21T22:14:46;70.00;;;46.30;;
57301;SDS011;43149;50.974;18.224;2023-11-21T22:24:32;74.30;;;40.50;;
57301;SDS011;43149;50.974;18.224;2023-11-21T22:34:16;63.70;;;41.00;;
57301;SDS011;43149;50.974;18.224;2023-11-21T22:44:00;72.70;;;42.00;;
57301;SDS011;43149;50.974;18.224;2023-11-21T22:48:51;82.00;;;59.00;;
57301;SDS011;43149;50.974;18.224;2023-11-21T22:58:36;76.70;;;42.10;;
57301;SDS011;43149;50.974;18.224;2023-11-21T23:08:22;80.70;;;43.40;;
57301;SDS011;43149;50.974;18.224;2023-11-21T23:18:17;76.00;;;42.80;;
57301;SDS011;43149;50.974;18.224;2023-11-21T23:28:13;76.60;;;38.90;;
57301;SDS011;43149;50.974;18.224;2023-11-21T23:37:58;75.50;;;41.60;;
57301;SDS011;43149;50.974;18.224;2023-11-21T23:47:41;75.80;;;41.10;;
57301;SDS011;43149;50.974;18.224;2023-11-21T23:57:25;88.30;;;46.30;;
